createdAt,value
2024-05-09T00:00:57.016Z,35.90
2024-05-09T00:01:56.945Z,32.10
2024-05-09T00:02:56.991Z,37.00
2024-05-09T00:03:56.996Z,32.20
2024-05-09T00:04:56.971Z,33.50
2024-05-09T00:05:57.000Z,33.30
2024-05-09T00:06:56.866Z,32.00
2024-05-09T00:07:56.900Z,34.60
2024-05-09T00:08:56.810Z,33.10
2024-05-09T00:09:56.802Z,34.90
2024-05-09T00:10:56.952Z,36.20
2024-05-09T00:11:57.023Z,33.20
2024-05-09T00:12:56.782Z,34.50
2024-05-09T00:13:56.850Z,36.60
2024-05-09T00:14:56.817Z,36.40
2024-05-09T00:15:56.765Z,34.80
2024-05-09T00:16:56.784Z,35.20
2024-05-09T00:17:56.914Z,36.90
2024-05-09T00:18:56.821Z,36.50
2024-05-09T00:19:56.752Z,35.20
2024-05-09T00:20:56.832Z,36.80
2024-05-09T00:21:56.707Z,37.00
2024-05-09T00:22:56.702Z,37.00
2024-05-09T00:23:56.682Z,35.60
2024-05-09T00:24:56.639Z,35.50
2024-05-09T00:25:56.763Z,37.50
2024-05-09T00:26:56.730Z,35.20
2024-05-09T00:27:56.696Z,38.90
2024-05-09T00:28:56.728Z,38.20
2024-05-09T00:29:56.587Z,38.50
2024-05-09T00:30:56.593Z,39.90
2024-05-09T00:31:56.815Z,37.10
2024-05-09T00:32:56.765Z,39.70
2024-05-09T00:33:56.729Z,39.60
2024-05-09T00:34:56.579Z,36.60
2024-05-09T00:35:56.536Z,39.40
2024-05-09T00:36:56.553Z,37.90
2024-05-09T00:37:56.616Z,38.00
2024-05-09T00:38:56.493Z,34.80
2024-05-09T00:39:56.483Z,36.20
2024-05-09T00:40:56.512Z,34.50
2024-05-09T00:41:56.492Z,39.50
2024-05-09T00:42:56.614Z,39.20
2024-05-09T00:43:56.519Z,37.60
2024-05-09T00:44:56.424Z,39.70
2024-05-09T00:45:56.477Z,39.80
2024-05-09T00:46:56.503Z,36.90
2024-05-09T00:47:56.810Z,41.00
2024-05-09T00:48:56.532Z,38.60
2024-05-09T00:49:56.435Z,38.50
2024-05-09T00:50:56.577Z,40.40
2024-05-09T00:51:56.387Z,40.80
2024-05-09T00:52:56.495Z,41.00
2024-05-09T00:53:56.327Z,38.80
2024-05-09T00:54:56.352Z,37.70
2024-05-09T00:55:56.425Z,41.50
2024-05-09T00:56:56.308Z,39.80
2024-05-09T00:57:56.291Z,41.60
2024-05-09T00:58:56.419Z,37.60
2024-05-09T00:59:56.260Z,39.60
2024-05-09T01:00:56.264Z,40.30
2024-05-09T01:01:56.338Z,37.80
2024-05-09T01:02:56.396Z,39.10
2024-05-09T01:03:56.351Z,37.60
2024-05-09T01:04:56.397Z,40.70
2024-05-09T01:05:56.224Z,40.70
2024-05-09T01:06:56.201Z,41.20
2024-05-09T01:07:56.213Z,39.10
2024-05-09T01:08:56.253Z,41.10
2024-05-09T01:09:56.220Z,38.00
2024-05-09T01:10:56.297Z,38.00
2024-05-09T01:11:56.223Z,38.10
2024-05-09T01:12:56.139Z,38.40
2024-05-09T01:13:56.149Z,38.20
2024-05-09T01:14:56.130Z,39.20
2024-05-09T01:15:56.227Z,37.20
2024-05-09T01:16:56.108Z,35.50
2024-05-09T01:17:56.688Z,34.50
2024-05-09T01:18:56.229Z,36.10
2024-05-09T01:19:56.171Z,36.50
2024-05-09T01:20:56.091Z,34.10
2024-05-09T01:21:56.034Z,35.20
2024-05-09T01:22:56.073Z,41.50
2024-05-09T01:23:56.017Z,32.50
2024-05-09T01:24:56.006Z,32.90
2024-05-09T01:25:56.082Z,32.40
2024-05-09T01:26:56.058Z,33.30
2024-05-09T01:27:55.998Z,36.20
2024-05-09T01:28:56.021Z,32.60
2024-05-09T01:29:55.977Z,37.90
2024-05-09T01:30:55.967Z,38.70
2024-05-09T01:31:56.025Z,37.60
2024-05-09T01:32:56.205Z,42.20
2024-05-09T01:33:56.193Z,42.10
2024-05-09T01:34:55.997Z,44.90
2024-05-09T01:36:04.655Z,44.60
2024-05-09T01:36:55.881Z,46.80
2024-05-09T01:37:55.901Z,48.50
2024-05-09T01:38:55.918Z,45.50
2024-05-09T01:39:55.839Z,43.10
2024-05-09T01:40:55.917Z,41.00
2024-05-09T01:41:55.830Z,39.60
2024-05-09T01:42:55.843Z,38.40
2024-05-09T01:43:55.832Z,36.30
2024-05-09T01:44:55.773Z,34.70
2024-05-09T01:45:55.824Z,35.60
2024-05-09T01:46:55.925Z,37.30
2024-05-09T01:47:55.982Z,37.10
2024-05-09T01:48:55.859Z,34.10
2024-05-09T01:49:55.755Z,35.00
2024-05-09T01:50:55.801Z,37.30
2024-05-09T01:51:55.718Z,34.80
2024-05-09T01:52:55.761Z,37.60
2024-05-09T01:53:55.716Z,38.10
2024-05-09T01:54:55.728Z,35.50
2024-05-09T01:55:55.718Z,39.30
2024-05-09T01:56:55.723Z,42.80
2024-05-09T01:57:55.667Z,41.90
2024-05-09T01:58:55.761Z,40.10
2024-05-09T01:59:55.623Z,40.40
2024-05-09T02:00:55.656Z,40.10
2024-05-09T02:01:57.676Z,40.60
2024-05-09T02:02:55.728Z,42.90
2024-05-09T02:03:55.942Z,41.90
2024-05-09T02:04:55.685Z,41.70
2024-05-09T02:05:55.607Z,41.10
2024-05-09T02:06:55.545Z,41.90
2024-05-09T02:07:55.786Z,41.90
2024-05-09T02:08:55.516Z,41.50
2024-05-09T02:09:55.511Z,42.70
2024-05-09T02:10:55.664Z,46.40
2024-05-09T02:11:55.695Z,48.80
2024-05-09T02:12:55.479Z,48.80
2024-05-09T02:13:55.597Z,49.00
2024-05-09T02:14:55.467Z,48.50
2024-05-09T02:15:55.453Z,52.40
2024-05-09T02:16:55.463Z,50.50
2024-05-09T02:17:55.675Z,48.20
2024-05-09T02:18:55.474Z,46.90
2024-05-09T02:19:55.576Z,45.90
2024-05-09T02:20:55.619Z,43.10
2024-05-09T02:21:55.387Z,41.70
2024-05-09T02:22:55.457Z,37.80
2024-05-09T02:23:55.357Z,41.60
2024-05-09T02:24:55.341Z,38.70
2024-05-09T02:25:55.371Z,41.20
2024-05-09T02:26:55.313Z,44.90
2024-05-09T02:27:55.390Z,46.20
2024-05-09T02:28:55.320Z,44.90
2024-05-09T02:29:55.292Z,49.80
2024-05-09T02:30:55.288Z,49.80
2024-05-09T02:31:55.322Z,47.30
2024-05-09T02:32:55.403Z,50.30
2024-05-09T02:33:55.543Z,50.60
2024-05-09T02:34:55.321Z,50.00
2024-05-09T02:35:55.309Z,51.90
2024-05-09T02:36:55.212Z,47.80
2024-05-09T02:37:55.250Z,50.30
2024-05-09T02:38:55.203Z,52.50
2024-05-09T02:39:55.188Z,51.20
2024-05-09T02:40:55.257Z,47.40
2024-05-09T02:41:55.189Z,47.30
2024-05-09T02:42:55.167Z,42.90
2024-05-09T02:43:55.172Z,49.60
2024-05-09T02:44:55.238Z,45.70
2024-05-09T02:45:55.251Z,45.40
2024-05-09T02:46:55.107Z,43.60
2024-05-09T02:47:55.298Z,44.90
2024-05-09T02:48:55.160Z,42.80
2024-05-09T02:49:55.174Z,40.30
2024-05-09T02:50:55.252Z,39.90
2024-05-09T02:51:55.083Z,41.10
2024-05-09T02:52:55.048Z,40.60
2024-05-09T02:53:55.035Z,41.50
2024-05-09T02:54:55.040Z,40.80
2024-05-09T02:55:55.119Z,41.10
2024-05-09T02:56:55.100Z,38.60
2024-05-09T02:57:55.016Z,39.40
2024-05-09T02:58:55.012Z,39.00
2024-05-09T02:59:55.076Z,40.60
2024-05-09T03:00:55.061Z,40.10
2024-05-09T03:01:55.042Z,43.10
2024-05-09T03:02:55.059Z,45.10
2024-05-09T03:03:55.087Z,48.00
2024-05-09T03:04:55.135Z,47.60
2024-05-09T03:05:55.010Z,45.40
2024-05-09T03:06:54.906Z,46.50
2024-05-09T03:07:54.906Z,46.90
2024-05-09T03:08:54.876Z,47.20
2024-05-09T03:09:54.846Z,48.30
2024-05-09T03:10:54.958Z,46.80
2024-05-09T03:11:54.991Z,45.00
2024-05-09T03:12:54.809Z,49.50
2024-05-09T03:13:54.940Z,49.30
2024-05-09T03:14:54.804Z,47.20
2024-05-09T03:15:54.798Z,47.30
2024-05-09T03:16:54.863Z,47.50
2024-05-09T03:17:54.926Z,51.40
2024-05-09T03:18:54.922Z,50.70
2024-05-09T03:19:54.838Z,51.10
2024-05-09T03:20:54.752Z,49.70
2024-05-09T03:21:54.763Z,50.70
2024-05-09T03:22:56.763Z,46.50
2024-05-09T03:23:54.888Z,50.40
2024-05-09T03:24:54.705Z,46.80
2024-05-09T03:25:54.774Z,46.40
2024-05-09T03:26:54.807Z,46.40
2024-05-09T03:27:54.825Z,42.20
2024-05-09T03:28:54.831Z,73.30
2024-05-09T03:29:54.638Z,134.20
2024-05-09T03:30:54.622Z,62.70
2024-05-09T03:31:54.716Z,43.50
2024-05-09T03:32:54.767Z,42.70
2024-05-09T03:33:54.772Z,40.40
2024-05-09T03:34:54.687Z,41.40
2024-05-09T03:35:54.580Z,43.50
2024-05-09T03:36:54.619Z,43.50
2024-05-09T03:37:54.627Z,41.70
2024-05-09T03:38:54.709Z,42.80
2024-05-09T03:39:54.546Z,43.80
2024-05-09T03:40:54.655Z,43.20
2024-05-09T03:41:54.527Z,41.70
2024-05-09T03:42:54.484Z,41.80
2024-05-09T03:43:54.651Z,38.80
2024-05-09T03:44:54.470Z,41.50
2024-05-09T03:45:54.503Z,45.10
2024-05-09T03:46:54.490Z,42.70
2024-05-09T03:47:54.798Z,47.20
2024-05-09T03:48:54.574Z,46.30
2024-05-09T03:49:54.428Z,49.70
2024-05-09T03:50:54.648Z,50.00
2024-05-09T03:51:54.393Z,49.10
2024-05-09T03:52:54.410Z,52.20
2024-05-09T03:53:54.391Z,53.30
2024-05-09T03:54:54.384Z,52.90
2024-05-09T03:55:54.392Z,52.90
2024-05-09T03:56:54.416Z,54.40
2024-05-09T03:57:54.415Z,56.20
2024-05-09T03:58:54.344Z,54.60
2024-05-09T03:59:54.304Z,55.60
2024-05-09T04:00:54.316Z,54.20
2024-05-09T04:01:54.388Z,54.90
2024-05-09T04:02:54.432Z,54.00
2024-05-09T04:03:54.481Z,57.90
2024-05-09T04:04:54.400Z,54.80
2024-05-09T04:05:54.330Z,53.70
2024-05-09T04:06:54.235Z,54.80
2024-05-09T04:07:54.262Z,53.50
2024-05-09T04:08:54.240Z,57.00
2024-05-09T04:09:54.194Z,57.70
2024-05-09T04:10:54.425Z,57.10
2024-05-09T04:11:54.377Z,53.40
2024-05-09T04:12:54.190Z,54.40
2024-05-09T04:13:54.363Z,55.20
2024-05-09T04:14:54.157Z,49.60
2024-05-09T04:15:54.209Z,48.50
2024-05-09T04:16:54.158Z,45.50
2024-05-09T04:17:54.256Z,45.30
2024-05-09T04:18:54.273Z,42.80
2024-05-09T04:19:54.162Z,44.30
2024-05-09T04:20:54.140Z,81.70
2024-05-09T04:21:54.170Z,50.10
2024-05-09T04:22:54.089Z,51.90
2024-05-09T04:23:54.124Z,56.30
2024-05-09T04:24:54.022Z,50.60
2024-05-09T04:25:54.062Z,50.10
2024-05-09T04:26:54.088Z,51.90
2024-05-09T04:27:54.069Z,48.80
2024-05-09T04:28:54.064Z,43.20
2024-05-09T04:29:54.027Z,41.20
2024-05-09T04:30:54.020Z,41.30
2024-05-09T04:31:54.093Z,43.10
2024-05-09T04:32:54.073Z,37.80
2024-05-09T04:33:54.250Z,36.80
2024-05-09T04:34:53.924Z,35.80
2024-05-09T04:35:53.948Z,35.20
2024-05-09T04:36:53.923Z,35.30
2024-05-09T04:37:53.988Z,32.90
2024-05-09T04:38:53.985Z,34.60
2024-05-09T04:39:53.881Z,32.80
2024-05-09T04:40:53.955Z,31.10
2024-05-09T04:41:53.842Z,34.20
2024-05-09T04:42:53.835Z,35.00
2024-05-09T04:43:53.956Z,33.90
2024-05-09T04:44:56.525Z,36.20
2024-05-09T04:45:53.820Z,35.50
2024-05-09T04:46:53.855Z,41.50
2024-05-09T04:47:54.062Z,37.80
2024-05-09T04:48:54.068Z,36.20
2024-05-09T04:49:53.810Z,38.60
2024-05-09T04:50:53.853Z,37.70
2024-05-09T04:51:53.749Z,38.40
2024-05-09T04:52:53.816Z,38.50
2024-05-09T04:53:53.843Z,38.10
2024-05-09T04:54:55.427Z,40.30
2024-05-09T04:55:53.761Z,39.10
2024-05-09T04:56:53.704Z,42.40
2024-05-09T04:57:53.733Z,39.70
2024-05-09T04:58:53.759Z,39.70
2024-05-09T04:59:53.672Z,41.40
2024-05-09T05:00:53.654Z,44.20
2024-05-09T05:01:53.783Z,42.10
2024-05-09T05:02:53.888Z,43.60
2024-05-09T05:03:55.846Z,41.10
2024-05-09T05:04:53.839Z,42.00
2024-05-09T05:05:53.660Z,40.20
2024-05-09T05:06:53.579Z,40.00
2024-05-09T05:07:53.640Z,35.10
2024-05-09T05:08:53.605Z,38.80
2024-05-09T05:09:53.546Z,41.70
2024-05-09T05:10:53.587Z,47.40
2024-05-09T05:11:53.658Z,40.70
2024-05-09T05:12:53.514Z,40.90
2024-05-09T05:13:53.520Z,38.40
2024-05-09T05:14:53.589Z,35.10
2024-05-09T05:15:53.831Z,34.70
2024-05-09T05:16:53.497Z,36.60
2024-05-09T05:17:53.577Z,43.50
2024-05-09T05:18:53.656Z,35.40
2024-05-09T05:19:53.557Z,36.50
2024-05-09T05:20:53.549Z,36.80
2024-05-09T05:21:53.424Z,36.70
2024-05-09T05:22:53.436Z,35.70
2024-05-09T05:23:53.433Z,37.60
2024-05-09T05:24:53.397Z,35.90
2024-05-09T05:25:54.113Z,37.60
2024-05-09T05:26:53.497Z,39.30
2024-05-09T05:27:53.374Z,36.30
2024-05-09T05:28:53.382Z,34.40
2024-05-09T05:29:53.423Z,35.00
2024-05-09T05:30:53.333Z,36.70
2024-05-09T05:31:53.479Z,37.40
2024-05-09T05:32:53.442Z,36.70
2024-05-09T05:33:53.414Z,40.70
2024-05-09T05:34:53.305Z,39.10
2024-05-09T05:35:53.357Z,39.60
2024-05-09T05:36:53.270Z,36.80
2024-05-09T05:37:53.336Z,36.90
2024-05-09T05:38:53.247Z,38.50
2024-05-09T05:39:53.211Z,40.30
2024-05-09T05:40:53.273Z,35.40
2024-05-09T05:41:53.205Z,34.80
2024-05-09T05:42:53.193Z,37.80
2024-05-09T05:43:53.222Z,34.90
2024-05-09T05:44:53.223Z,36.30
2024-05-09T05:45:53.172Z,39.00
2024-05-09T05:46:53.244Z,38.30
2024-05-09T05:47:53.452Z,36.40
2024-05-09T05:48:53.345Z,34.80
2024-05-09T05:49:53.137Z,35.40
2024-05-09T05:50:53.179Z,39.60
2024-05-09T05:51:53.095Z,34.60
2024-05-09T05:52:53.081Z,36.80
2024-05-09T05:53:53.253Z,38.40
2024-05-09T05:54:53.082Z,35.80
2024-05-09T05:55:53.138Z,36.30
2024-05-09T05:56:53.106Z,36.00
2024-05-09T05:57:53.043Z,35.10
2024-05-09T05:58:53.109Z,35.70
2024-05-09T05:59:53.041Z,34.50
2024-05-09T06:00:53.095Z,35.50
2024-05-09T06:01:53.019Z,34.80
2024-05-09T06:02:53.176Z,35.90
2024-05-09T06:03:53.167Z,35.50
2024-05-09T06:04:53.173Z,33.60
2024-05-09T06:05:52.971Z,39.00
2024-05-09T06:06:52.912Z,35.20
2024-05-09T06:07:52.975Z,36.90
2024-05-09T06:08:53.008Z,37.00
2024-05-09T06:09:52.966Z,33.80
2024-05-09T06:10:53.088Z,36.10
2024-05-09T06:11:52.992Z,36.00
2024-05-09T06:12:52.863Z,32.70
2024-05-09T06:13:52.915Z,33.70
2024-05-09T06:14:52.838Z,34.50
2024-05-09T06:15:52.926Z,35.00
2024-05-09T06:16:55.373Z,36.90
2024-05-09T06:17:53.034Z,38.80
2024-05-09T06:18:53.101Z,34.70
2024-05-09T06:19:52.916Z,34.40
2024-05-09T06:20:52.856Z,33.90
2024-05-09T06:21:52.845Z,32.80
2024-05-09T06:22:52.814Z,35.80
2024-05-09T06:23:52.845Z,33.70
2024-05-09T06:24:52.744Z,34.30
2024-05-09T06:25:52.792Z,33.80
2024-05-09T06:26:52.704Z,34.40
2024-05-09T06:27:52.751Z,35.90
2024-05-09T06:28:52.765Z,33.00
2024-05-09T06:29:52.678Z,32.40
2024-05-09T06:30:52.724Z,33.90
2024-05-09T06:31:52.727Z,32.20
2024-05-09T06:32:52.834Z,35.20
2024-05-09T06:33:52.824Z,35.10
2024-05-09T06:34:52.664Z,34.10
2024-05-09T06:35:52.637Z,33.50
2024-05-09T06:36:52.652Z,35.10
2024-05-09T06:37:52.627Z,34.40
2024-05-09T06:38:53.183Z,34.60
2024-05-09T06:39:52.599Z,32.60
2024-05-09T06:40:52.612Z,34.10
2024-05-09T06:41:52.699Z,35.00
2024-05-09T06:42:52.561Z,32.60
2024-05-09T06:43:52.729Z,33.80
2024-05-09T06:44:52.527Z,31.20
2024-05-09T06:45:52.770Z,31.50
2024-05-09T06:46:53.623Z,31.30
2024-05-09T06:47:52.652Z,27.90
2024-05-09T06:48:53.229Z,31.20
2024-05-09T06:49:52.499Z,32.70
2024-05-09T06:50:52.511Z,30.70
2024-05-09T06:51:52.475Z,32.00
2024-05-09T06:52:52.460Z,31.90
2024-05-09T06:53:52.492Z,31.40
2024-05-09T06:54:52.400Z,31.00
2024-05-09T06:55:52.647Z,29.50
2024-05-09T06:56:52.384Z,31.40
2024-05-09T06:57:52.380Z,34.10
2024-05-09T06:58:52.552Z,30.30
2024-05-09T06:59:52.434Z,31.20
2024-05-09T07:00:52.523Z,30.50
2024-05-09T07:01:52.401Z,31.20
2024-05-09T07:02:52.545Z,29.30
2024-05-09T07:03:52.561Z,29.10
2024-05-09T07:04:52.636Z,29.30
2024-05-09T07:05:52.376Z,31.50
2024-05-09T07:06:52.304Z,29.00
2024-05-09T07:07:52.346Z,30.80
2024-05-09T07:08:52.787Z,32.40
2024-05-09T07:09:52.327Z,31.70
2024-05-09T07:10:52.396Z,29.40
2024-05-09T07:11:52.449Z,28.70
2024-05-09T07:12:52.211Z,32.30
2024-05-09T07:13:52.416Z,29.50
2024-05-09T07:14:52.255Z,29.50
2024-05-09T07:15:52.196Z,32.80
2024-05-09T07:16:52.317Z,36.20
2024-05-09T07:17:52.342Z,31.20
2024-05-09T07:18:52.572Z,34.70
2024-05-09T07:19:52.212Z,29.20
2024-05-09T07:20:52.175Z,30.60
2024-05-09T07:21:52.119Z,31.70
2024-05-09T07:22:52.141Z,29.40
2024-05-09T07:23:52.241Z,29.90
2024-05-09T07:24:52.080Z,27.70
2024-05-09T07:25:52.095Z,30.70
2024-05-09T07:26:52.056Z,34.00
2024-05-09T07:27:52.056Z,36.10
2024-05-09T07:28:52.064Z,30.00
2024-05-09T07:29:52.407Z,28.90
2024-05-09T07:30:52.034Z,27.80
2024-05-09T07:31:52.068Z,27.80
2024-05-09T07:32:52.141Z,27.90
2024-05-09T07:33:52.064Z,27.40
2024-05-09T07:34:51.987Z,31.10
2024-05-09T07:35:52.181Z,31.00
2024-05-09T07:36:51.960Z,32.60
2024-05-09T07:37:51.973Z,31.80
2024-05-09T07:38:52.045Z,33.80
2024-05-09T07:39:52.004Z,29.50
2024-05-09T07:40:59.040Z,28.90
2024-05-09T07:41:51.966Z,28.60
2024-05-09T07:42:51.913Z,28.10
2024-05-09T07:43:51.908Z,26.00
2024-05-09T07:44:51.872Z,29.30
2024-05-09T07:45:54.491Z,28.00
2024-05-09T07:51:32.770Z,26.50
2024-05-09T07:52:37.617Z,30.30
2024-05-09T07:53:21.106Z,27.30
2024-05-09T07:53:35.481Z,27.30
2024-05-09T07:53:55.861Z,25.80
2024-05-09T07:54:52.991Z,25.60
2024-05-09T07:55:51.943Z,26.10
2024-05-09T07:56:51.933Z,30.00
2024-05-09T07:57:51.902Z,26.10
2024-05-09T07:58:52.145Z,26.10
2024-05-09T07:59:51.716Z,25.70
2024-05-09T08:00:51.737Z,26.90
2024-05-09T08:01:51.836Z,29.00
2024-05-09T08:02:51.699Z,27.30
2024-05-09T08:03:51.960Z,25.60
2024-05-09T08:04:51.824Z,24.80
2024-05-09T08:05:51.871Z,27.10
2024-05-09T08:06:51.729Z,23.00
2024-05-09T08:07:51.635Z,25.50
2024-05-09T08:08:51.802Z,23.00
2024-05-09T08:09:51.627Z,23.30
2024-05-09T08:10:51.689Z,23.20
2024-05-09T08:11:51.606Z,23.50
2024-05-09T08:12:51.666Z,23.80
2024-05-09T08:13:51.568Z,23.80
2024-05-09T08:14:51.602Z,24.90
2024-05-09T08:15:51.600Z,25.00
2024-05-09T08:16:51.509Z,23.80
2024-05-09T08:17:51.632Z,25.90
2024-05-09T08:18:51.642Z,22.40
2024-05-09T08:19:51.583Z,23.00
2024-05-09T08:20:51.587Z,23.70
2024-05-09T08:21:51.612Z,23.80
2024-05-09T08:22:51.447Z,23.50
2024-05-09T08:23:51.531Z,22.90
2024-05-09T08:24:51.521Z,22.70
2024-05-09T08:25:51.430Z,22.40
2024-05-09T08:26:51.405Z,23.60
2024-05-09T08:27:51.434Z,24.20
2024-05-09T08:28:51.451Z,22.80
2024-05-09T08:29:51.424Z,25.00
2024-05-09T08:30:51.617Z,25.30
2024-05-09T08:31:51.413Z,23.30
2024-05-09T08:32:51.456Z,22.30
2024-05-09T08:33:51.720Z,19.30
2024-05-09T08:34:51.436Z,20.10
2024-05-09T08:35:51.314Z,18.60
2024-05-09T08:36:51.320Z,18.80
2024-05-09T08:37:51.473Z,17.30
2024-05-09T08:38:51.303Z,18.60
2024-05-09T08:39:51.286Z,20.80
2024-05-09T08:40:51.399Z,19.70
2024-05-09T08:41:51.247Z,20.50
2024-05-09T08:42:51.272Z,18.70
2024-05-09T08:43:51.289Z,20.80
2024-05-09T08:44:51.202Z,18.40
2024-05-09T08:45:51.199Z,19.10
2024-05-09T08:46:51.189Z,19.80
2024-05-09T08:47:51.354Z,18.60
2024-05-09T08:48:51.339Z,21.00
2024-05-09T08:49:51.197Z,21.40
2024-05-09T08:50:51.258Z,20.10
2024-05-09T08:51:51.182Z,22.30
2024-05-09T08:52:51.131Z,20.40
2024-05-09T08:53:51.118Z,18.70
2024-05-09T08:54:51.231Z,20.00
2024-05-09T08:55:51.095Z,18.20
2024-05-09T08:56:51.163Z,18.80
2024-05-09T08:57:51.242Z,18.90
2024-05-09T08:58:51.067Z,18.30
2024-05-09T08:59:51.055Z,19.00
2024-05-09T09:00:51.220Z,20.50
2024-05-09T09:01:51.144Z,19.80
2024-05-09T09:02:51.069Z,18.80
2024-05-09T09:03:51.257Z,21.90
2024-05-09T09:04:51.090Z,19.50
2024-05-09T09:05:51.186Z,19.70
2024-05-09T09:06:53.146Z,19.40
2024-05-09T09:07:50.962Z,19.80
2024-05-09T09:08:50.961Z,17.80
2024-05-09T09:09:50.959Z,18.80
2024-05-09T09:10:50.972Z,17.10
2024-05-09T09:11:50.993Z,18.40
2024-05-09T09:12:50.921Z,18.70
2024-05-09T09:13:50.892Z,18.00
2024-05-09T09:14:50.881Z,20.30
2024-05-09T09:15:50.980Z,15.20
2024-05-09T09:16:50.864Z,18.40
2024-05-09T09:17:50.988Z,18.30
2024-05-09T09:18:50.961Z,17.10
2024-05-09T09:19:50.877Z,18.10
2024-05-09T09:20:50.916Z,18.30
2024-05-09T09:21:50.889Z,18.60
2024-05-09T09:22:50.792Z,18.50
2024-05-09T09:23:50.786Z,17.70
2024-05-09T09:24:50.852Z,19.30
2024-05-09T09:25:51.003Z,17.40
2024-05-09T09:26:50.872Z,17.00
2024-05-09T09:27:50.779Z,18.30
2024-05-09T09:28:50.751Z,16.10
2024-05-09T09:29:50.714Z,19.20
2024-05-09T09:30:50.875Z,15.20
2024-05-09T09:31:50.739Z,17.60
2024-05-09T09:32:50.767Z,18.60
2024-05-09T09:33:50.969Z,15.90
2024-05-09T09:34:50.777Z,18.30
2024-05-09T09:35:50.666Z,17.60
2024-05-09T09:36:50.903Z,16.80
2024-05-09T09:37:50.625Z,17.50
2024-05-09T09:38:50.691Z,19.10
2024-05-09T09:39:50.664Z,16.90
2024-05-09T09:40:50.826Z,16.10
2024-05-09T09:41:50.597Z,21.30
2024-05-09T09:42:50.624Z,19.30
2024-05-09T09:43:50.558Z,17.80
2024-05-09T09:44:58.180Z,17.30
2024-05-09T09:45:52.176Z,16.70
2024-05-09T09:46:50.556Z,17.60
2024-05-09T09:47:50.628Z,16.10
2024-05-09T09:48:50.830Z,17.10
2024-05-09T09:49:50.547Z,17.70
2024-05-09T09:50:50.494Z,15.80
2024-05-09T09:51:50.549Z,18.00
2024-05-09T09:52:50.455Z,19.30
2024-05-09T09:53:50.561Z,15.90
2024-05-09T09:54:50.481Z,16.40
2024-05-09T09:55:50.435Z,18.10
2024-05-09T09:56:50.424Z,16.00
2024-05-09T09:57:50.610Z,16.90
2024-05-09T09:58:50.485Z,16.70
2024-05-09T09:59:50.404Z,18.10
2024-05-09T10:00:50.482Z,17.40
2024-05-09T10:01:50.544Z,17.70
2024-05-09T10:02:50.438Z,18.40
2024-05-09T10:03:50.411Z,15.80
2024-05-09T10:04:50.483Z,16.60
2024-05-09T10:05:50.397Z,19.00
2024-05-09T10:06:50.362Z,17.80
2024-05-09T10:07:50.302Z,17.50
2024-05-09T10:08:50.381Z,15.40
2024-05-09T10:09:51.276Z,16.60
2024-05-09T10:10:50.860Z,17.80
2024-05-09T10:11:52.375Z,17.50
2024-05-09T10:12:50.293Z,17.20
2024-05-09T10:13:50.926Z,15.70
2024-05-09T10:14:50.308Z,16.10
2024-05-09T10:15:50.328Z,17.80
2024-05-09T10:16:50.365Z,15.50
2024-05-09T10:17:50.289Z,17.00
2024-05-09T10:18:50.385Z,16.80
2024-05-09T10:19:50.259Z,19.00
2024-05-09T10:20:50.270Z,18.00
2024-05-09T10:21:50.241Z,17.10
2024-05-09T10:22:50.174Z,18.30
2024-05-09T10:23:50.271Z,20.90
2024-05-09T10:24:50.231Z,16.90
2024-05-09T10:25:50.112Z,18.10
2024-05-09T10:26:50.138Z,19.70
2024-05-09T10:27:50.115Z,18.10
2024-05-09T10:28:50.067Z,21.50
2024-05-09T10:29:50.073Z,17.60
2024-05-09T10:30:50.500Z,17.60
2024-05-09T10:31:50.071Z,16.90
2024-05-09T10:32:50.206Z,17.90
2024-05-09T10:33:51.161Z,17.70
2024-05-09T10:34:50.182Z,16.70
2024-05-09T10:35:50.060Z,17.50
2024-05-09T10:36:50.086Z,16.80
2024-05-09T10:37:50.085Z,17.50
2024-05-09T10:38:50.034Z,15.80
2024-05-09T10:39:50.017Z,19.60
2024-05-09T10:40:49.962Z,17.20
2024-05-09T10:41:50.078Z,16.30
2024-05-09T10:42:50.237Z,18.50
2024-05-09T10:43:49.928Z,16.70
2024-05-09T10:44:49.922Z,16.20
2024-05-09T10:45:49.936Z,16.60
2024-05-09T10:46:49.910Z,15.00
2024-05-09T10:47:49.954Z,15.00
2024-05-09T10:48:50.167Z,15.90
2024-05-09T10:49:50.104Z,15.00
2024-05-09T10:50:49.880Z,15.70
2024-05-09T10:51:49.855Z,15.90
2024-05-09T10:52:49.833Z,16.70
2024-05-09T10:53:49.830Z,16.20
2024-05-09T10:54:49.901Z,14.00
2024-05-09T10:55:49.802Z,15.20
2024-05-09T10:56:49.808Z,14.40
2024-05-09T10:57:49.903Z,14.10
2024-05-09T10:58:49.750Z,12.30
2024-05-09T10:59:49.747Z,13.20
2024-05-09T11:00:49.852Z,12.70
2024-05-09T11:01:49.912Z,10.90
2024-05-09T11:02:49.746Z,11.00
2024-05-09T11:03:49.971Z,10.40
2024-05-09T11:04:49.759Z,14.60
2024-05-09T11:05:49.715Z,14.80
2024-05-09T11:06:49.698Z,12.70
2024-05-09T11:07:49.747Z,13.70
2024-05-09T11:08:49.752Z,13.20
2024-05-09T11:09:49.775Z,14.90
2024-05-09T11:10:49.678Z,13.60
2024-05-09T11:11:49.726Z,13.90
2024-05-09T11:12:49.660Z,12.90
2024-05-09T11:13:49.580Z,12.60
2024-05-09T11:14:49.638Z,14.00
2024-05-09T11:15:49.611Z,12.80
2024-05-09T11:16:49.572Z,11.60
2024-05-09T11:17:49.609Z,10.00
2024-05-09T11:18:49.828Z,12.80
2024-05-09T11:19:49.565Z,12.10
2024-05-09T11:20:49.562Z,12.00
2024-05-09T11:21:49.561Z,13.60
2024-05-09T11:22:49.499Z,12.80
2024-05-09T11:23:49.518Z,14.50
2024-05-09T11:24:49.713Z,11.80
2024-05-09T11:25:49.480Z,13.30
2024-05-09T11:26:49.469Z,11.90
2024-05-09T11:27:49.477Z,12.30
2024-05-09T11:28:49.435Z,12.50
2024-05-09T11:29:49.531Z,12.80
2024-05-09T11:30:49.477Z,15.10
2024-05-09T11:31:49.578Z,14.50
2024-05-09T11:32:49.502Z,17.80
2024-05-09T11:33:49.616Z,16.40
2024-05-09T11:34:49.369Z,15.40
2024-05-09T11:35:49.358Z,15.30
2024-05-09T11:36:49.463Z,14.50
2024-05-09T11:37:49.322Z,16.10
2024-05-09T11:38:49.327Z,17.00
2024-05-09T11:39:49.346Z,14.70
2024-05-09T11:40:49.422Z,13.70
2024-05-09T11:41:49.410Z,13.30
2024-05-09T11:42:51.511Z,14.50
2024-05-09T11:43:49.272Z,12.90
2024-05-09T11:44:49.256Z,15.00
2024-05-09T11:45:49.268Z,15.60
2024-05-09T11:46:49.280Z,14.00
2024-05-09T11:47:49.384Z,13.50
2024-05-09T11:48:49.488Z,13.90
2024-05-09T11:49:49.311Z,13.80
2024-05-09T11:50:49.231Z,13.30
2024-05-09T11:51:49.274Z,13.40
2024-05-09T11:52:49.203Z,12.20
2024-05-09T11:53:49.173Z,13.40
2024-05-09T11:54:49.196Z,13.20
2024-05-09T11:55:49.127Z,14.30
2024-05-09T11:56:49.123Z,14.30
2024-05-09T11:57:49.215Z,13.20
2024-05-09T11:58:49.118Z,15.00
2024-05-09T11:59:49.113Z,12.70
2024-05-09T12:00:49.236Z,13.40
2024-05-09T12:01:49.296Z,12.50
2024-05-09T12:02:49.225Z,13.20
2024-05-09T12:03:49.420Z,14.20
2024-05-09T12:04:49.149Z,13.00
2024-05-09T12:05:49.117Z,12.00
2024-05-09T12:06:49.067Z,12.30
2024-05-09T12:07:48.987Z,12.60
2024-05-09T12:08:49.152Z,10.00
2024-05-09T12:09:49.048Z,15.20
2024-05-09T12:10:49.316Z,15.90
2024-05-09T12:11:48.996Z,14.50
2024-05-09T12:12:49.018Z,15.90
2024-05-09T12:13:49.054Z,12.70
2024-05-09T12:14:48.930Z,13.50
2024-05-09T12:15:49.079Z,12.90
2024-05-09T12:16:48.951Z,14.30
2024-05-09T12:17:50.683Z,13.90
2024-05-09T12:18:49.037Z,15.60
2024-05-09T12:19:48.976Z,12.20
2024-05-09T12:20:48.974Z,12.40
2024-05-09T12:21:48.942Z,15.30
2024-05-09T12:22:48.942Z,10.00
2024-05-09T12:23:48.846Z,12.20
2024-05-09T12:24:48.842Z,11.00
2024-05-09T12:25:48.823Z,10.20
2024-05-09T12:26:48.832Z,13.90
2024-05-09T12:27:48.875Z,14.70
2024-05-09T12:28:48.796Z,12.50
2024-05-09T12:29:48.766Z,10.70
2024-05-09T12:30:48.819Z,10.00
2024-05-09T12:31:48.779Z,12.20
2024-05-09T12:32:49.083Z,12.00
2024-05-09T12:33:48.798Z,11.00
2024-05-09T12:34:48.742Z,14.00
2024-05-09T12:35:50.873Z,11.60
2024-05-09T12:36:48.769Z,11.90
2024-05-09T12:37:48.685Z,12.30
2024-05-09T12:38:48.677Z,13.00
2024-05-09T12:39:48.684Z,13.00
2024-05-09T12:40:48.690Z,12.60
2024-05-09T12:41:48.623Z,12.20
2024-05-09T12:42:48.778Z,11.00
2024-05-09T12:43:48.666Z,11.60
2024-05-09T12:44:48.616Z,11.70
2024-05-09T12:45:48.650Z,12.40
2024-05-09T12:46:48.632Z,10.60
2024-05-09T12:47:48.654Z,12.50
2024-05-09T12:48:48.704Z,12.20
2024-05-09T12:49:48.581Z,11.50
2024-05-09T12:50:48.689Z,13.00
2024-05-09T12:51:48.565Z,12.60
2024-05-09T12:52:48.575Z,12.60
2024-05-09T12:53:48.519Z,11.90
2024-05-09T12:54:48.530Z,12.30
2024-05-09T12:55:56.230Z,14.60